Terminal Aerodrome Forecast
Issued by NWS

Home | Current Version | Previous Version | Text Only | Print | Product List | Glossary On
Versions: 1 2 3 4 5 6 7 8 9 10 11 12 13 14 15 16 17 18 19 20
000
FTUS43 KMPX 291300 AAA
TAFRNH
TAF AMD
KRNH 291300Z 2913/3012 18007KT P6SM SCT008 BKN035
      TEMPO 2914/2916 6SM -SHRA BKN008
     FM291600 22008KT 6SM -SHRA BR VCTS SCT012 OVC025CB
      TEMPO 2917/2921 2SM -TSRA BKN012CB
     FM292200 34015G20KT P6SM VCSH BKN012 OVC020
     FM300200 35014G19KT P6SM SCT025=

USA.gov is the U.S. government's official web portal to all federal, state and local government web resources and services.